sensor_id;sensor_type;location;lat;lon;timestamp;pressure;altitude;pressure_sealevel;temperature;humidity
6668;BME280;3370;47.712;9.082;2022-12-20T00:00:27;97777.88;;;0.04;100.00
6668;BME280;3370;47.712;9.082;2022-12-20T00:02:53;97788.00;;;0.04;100.00
6668;BME280;3370;47.712;9.082;2022-12-20T00:05:19;97782.97;;;0.10;100.00
6668;BME280;3370;47.712;9.082;2022-12-20T00:07:45;97786.38;;;0.12;100.00
6668;BME280;3370;47.712;9.082;2022-12-20T00:10:11;97782.97;;;0.10;100.00
6668;BME280;3370;47.712;9.082;2022-12-20T00:12:37;97776.22;;;0.11;100.00
6668;BME280;3370;47.712;9.082;2022-12-20T00:15:03;97774.56;;;0.11;100.00
6668;BME280;3370;47.712;9.082;2022-12-20T00:17:29;97775.44;;;0.13;100.00
6668;BME280;3370;47.712;9.082;2022-12-20T00:19:56;97770.41;;;0.19;100.00
6668;BME280;3370;47.712;9.082;2022-12-20T00:22:21;97774.56;;;0.14;100.00
6668;BME280;3370;47.712;9.082;2022-12-20T00:24:47;97775.44;;;0.13;100.00
6668;BME280;3370;47.712;9.082;2022-12-20T00:27:13;97777.94;;;0.13;100.00
6668;BME280;3370;47.712;9.082;2022-12-20T00:29:39;97782.19;;;0.16;100.00
6668;BME280;3370;47.712;9.082;2022-12-20T00:32:05;97779.66;;;0.17;100.00
6668;BME280;3370;47.712;9.082;2022-12-20T00:34:31;97777.13;;;0.16;100.00
6668;BME280;3370;47.712;9.082;2022-12-20T00:36:57;97769.53;;;0.17;100.00
6668;BME280;3370;47.712;9.082;2022-12-20T00:39:23;97772.09;;;0.21;100.00
6668;BME280;3370;47.712;9.082;2022-12-20T00:41:48;97773.69;;;0.11;100.00
6668;BME280;3370;47.712;9.082;2022-12-20T00:44:14;97782.94;;;0.04;100.00
6668;BME280;3370;47.712;9.082;2022-12-20T00:46:40;97782.91;;;0.01;100.00
6668;BME280;3370;47.712;9.082;2022-12-20T00:49:06;97785.50;;;0.09;100.00
6668;BME280;3370;47.712;9.082;2022-12-20T00:51:32;97777.84;;;0.01;100.00
6668;BME280;3370;47.712;9.082;2022-12-20T00:53:58;97772.72;;;-0.07;100.00
6668;BME280;3370;47.712;9.082;2022-12-20T00:56:24;97771.88;;;-0.06;100.00
6668;BME280;3370;47.712;9.082;2022-12-20T00:58:50;97775.28;;;-0.05;100.00
6668;BME280;3370;47.712;9.082;2022-12-20T01:01:22;97760.97;;;0.02;100.00
6668;BME280;3370;47.712;9.082;2022-12-20T01:03:49;97765.22;;;0.03;100.00
6668;BME280;3370;47.712;9.082;2022-12-20T01:06:16;97768.56;;;0.02;100.00
6668;BME280;3370;47.712;9.082;2022-12-20T01:08:42;97770.31;;;0.06;100.00
6668;BME280;3370;47.712;9.082;2022-12-20T01:13:44;97762.66;;;0.01;100.00
6668;BME280;3370;47.712;9.082;2022-12-20T01:16:19;97768.59;;;0.03;100.00
6668;BME280;3370;47.712;9.082;2022-12-20T01:18:46;97761.88;;;0.07;100.00
6668;BME280;3370;47.712;9.082;2022-12-20T01:21:14;97760.19;;;0.09;100.00
6668;BME280;3370;47.712;9.082;2022-12-20T01:23:40;97760.25;;;0.13;100.00
6668;BME280;3370;47.712;9.082;2022-12-20T01:26:10;97752.63;;;0.10;100.00
6668;BME280;3370;47.712;9.082;2022-12-20T01:28:39;97761.09;;;0.15;100.00
6668;BME280;3370;47.712;9.082;2022-12-20T01:31:07;97756.84;;;0.08;100.00
6668;BME280;3370;47.712;9.082;2022-12-20T01:33:34;97756.06;;;0.18;100.00
6668;BME280;3370;47.712;9.082;2022-12-20T01:36:04;97764.47;;;0.16;100.00
6668;BME280;3370;47.712;9.082;2022-12-20T01:38:31;97756.00;;;0.09;100.00
6668;BME280;3370;47.712;9.082;2022-12-20T01:40:58;97747.59;;;0.13;100.00
6668;BME280;3370;47.712;9.082;2022-12-20T01:43:31;97756.84;;;0.10;100.00
6668;BME280;3370;47.712;9.082;2022-12-20T01:46:09;97761.94;;;0.14;100.00
6668;BME280;3370;47.712;9.082;2022-12-20T01:48:35;97753.47;;;0.12;100.00
6668;BME280;3370;47.712;9.082;2022-12-20T01:51:01;97754.28;;;0.05;100.00
6668;BME280;3370;47.712;9.082;2022-12-20T01:53:28;97754.34;;;0.11;100.00
6668;BME280;3370;47.712;9.082;2022-12-20T01:55:54;97757.69;;;0.10;100.00
6668;BME280;3370;47.712;9.082;2022-12-20T01:58:20;97749.28;;;0.11;100.00
6668;BME280;3370;47.712;9.082;2022-12-20T02:00:47;97749.28;;;0.11;100.00
6668;BME280;3370;47.712;9.082;2022-12-20T02:03:14;97734.06;;;0.08;100.00
6668;BME280;3370;47.712;9.082;2022-12-20T02:05:44;97729.03;;;0.14;100.00
6668;BME280;3370;47.712;9.082;2022-12-20T02:08:12;97734.13;;;0.13;100.00
6668;BME280;3370;47.712;9.082;2022-12-20T02:11:14;97749.28;;;0.14;100.00
6668;BME280;3370;47.712;9.082;2022-12-20T02:16:48;97737.50;;;0.18;100.00
6668;BME280;3370;47.712;9.082;2022-12-20T02:19:49;97732.44;;;0.15;100.00
6668;BME280;3370;47.712;9.082;2022-12-20T02:28:39;97719.00;;;0.21;100.00
6668;BME280;3370;47.712;9.082;2022-12-20T02:31:13;97724.03;;;0.17;100.00
6668;BME280;3370;47.712;9.082;2022-12-20T02:33:43;97724.03;;;0.17;100.00
6668;BME280;3370;47.712;9.082;2022-12-20T02:36:10;97734.06;;;0.08;100.00
6668;BME280;3370;47.712;9.082;2022-12-20T02:38:37;97724.78;;;0.07;100.00
6668;BME280;3370;47.712;9.082;2022-12-20T02:41:22;97725.63;;;0.06;100.00
6668;BME280;3370;47.712;9.082;2022-12-20T02:43:59;97712.16;;;0.10;100.00
6668;BME280;3370;47.712;9.082;2022-12-20T02:46:45;97719.72;;;0.04;100.00
6668;BME280;3370;47.712;9.082;2022-12-20T02:49:16;97715.56;;;0.09;100.00
6668;BME280;3370;47.712;9.082;2022-12-20T02:51:47;97705.38;;;0.03;100.00
6668;BME280;3370;47.712;9.082;2022-12-20T02:54:16;97709.56;;;0.01;100.00
6668;BME280;3370;47.712;9.082;2022-12-20T02:56:54;97713.84;;;0.08;100.00
6668;BME280;3370;47.712;9.082;2022-12-20T02:59:29;97716.38;;;0.10;100.00
6668;BME280;3370;47.712;9.082;2022-12-20T03:01:56;97709.63;;;0.10;100.00
6668;BME280;3370;47.712;9.082;2022-12-20T03:04:32;97707.81;;;-0.08;100.00
6668;BME280;3370;47.712;9.082;2022-12-20T03:07:09;97710.31;;;-0.12;100.00
6668;BME280;3370;47.712;9.082;2022-12-20T03:09:42;97703.59;;;-0.10;100.00
6668;BME280;3370;47.712;9.082;2022-12-20T03:12:09;97698.50;;;-0.13;100.00
6668;BME280;3370;47.712;9.082;2022-12-20T03:14:37;97698.50;;;-0.13;100.00
6668;BME280;3370;47.712;9.082;2022-12-20T03:17:04;97693.44;;;-0.13;100.00
6668;BME280;3370;47.712;9.082;2022-12-20T03:19:30;97686.78;;;-0.05;100.00
6668;BME280;3370;47.712;9.082;2022-12-20T03:21:56;97680.88;;;-0.06;100.00
6668;BME280;3370;47.712;9.082;2022-12-20T03:24:22;97679.19;;;-0.02;100.00
6668;BME280;3370;47.712;9.082;2022-12-20T03:26:48;97675.03;;;0.00;100.00
6668;BME280;3370;47.712;9.082;2022-12-20T03:29:14;97674.19;;;0.03;100.00
6668;BME280;3370;47.712;9.082;2022-12-20T03:31:40;97680.06;;;0.02;100.00
6668;BME280;3370;47.712;9.082;2022-12-20T03:34:06;97679.25;;;0.03;100.00
6668;BME280;3370;47.712;9.082;2022-12-20T03:36:32;97679.28;;;0.06;100.00
6668;BME280;3370;47.712;9.082;2022-12-20T03:38:58;97669.16;;;0.04;100.00
6668;BME280;3370;47.712;9.082;2022-12-20T03:41:24;97664.94;;;0.06;100.00
6668;BME280;3370;47.712;9.082;2022-12-20T03:43:51;97661.56;;;0.07;100.00
6668;BME280;3370;47.712;9.082;2022-12-20T03:46:18;97664.97;;;0.09;100.00
6668;BME280;3370;47.712;9.082;2022-12-20T03:48:43;97666.69;;;0.16;100.00
6668;BME280;3370;47.712;9.082;2022-12-20T03:51:10;97665.03;;;0.18;100.00
6668;BME280;3370;47.712;9.082;2022-12-20T03:53:36;97661.56;;;0.07;100.00
6668;BME280;3370;47.712;9.082;2022-12-20T03:56:02;97664.09;;;0.06;100.00
6668;BME280;3370;47.712;9.082;2022-12-20T03:58:28;97669.16;;;0.06;100.00
6668;BME280;3370;47.712;9.082;2022-12-20T04:00:56;97673.38;;;0.08;100.00
6668;BME280;3370;47.712;9.082;2022-12-20T04:03:22;97668.31;;;0.08;100.00
6668;BME280;3370;47.712;9.082;2022-12-20T04:05:48;97660.75;;;0.08;100.00
6668;BME280;3370;47.712;9.082;2022-12-20T04:08:13;97664.97;;;0.09;100.00
6668;BME280;3370;47.712;9.082;2022-12-20T04:10:39;97654.88;;;0.15;100.00
6668;BME280;3370;47.712;9.082;2022-12-20T04:13:24;97669.28;;;0.24;100.00
6668;BME280;3370;47.712;9.082;2022-12-20T04:15:50;97678.56;;;0.24;100.00
6668;BME280;3370;47.712;9.082;2022-12-20T04:18:15;97656.56;;;0.13;100.00
6668;BME280;3370;47.712;9.082;2022-12-20T04:20:41;97659.84;;;0.03;100.00
6668;BME280;3370;47.712;9.082;2022-12-20T04:23:07;97655.63;;;-0.01;100.00
6668;BME280;3370;47.712;9.082;2022-12-20T04:25:33;97657.28;;;-0.05;100.00
6668;BME280;3370;47.712;9.082;2022-12-20T04:27:59;97653.06;;;-0.07;100.00
6668;BME280;3370;47.712;9.082;2022-12-20T04:30:24;97649.69;;;-0.06;100.00
6668;BME280;3370;47.712;9.082;2022-12-20T04:32:50;97644.69;;;0.00;100.00
6668;BME280;3370;47.712;9.082;2022-12-20T04:35:19;97643.81;;;-0.01;100.00
6668;BME280;3370;47.712;9.082;2022-12-20T04:37:45;97636.25;;;0.01;100.00
6668;BME280;3370;47.712;9.082;2022-12-20T04:40:12;97642.16;;;0.05;100.00
6668;BME280;3370;47.712;9.082;2022-12-20T04:42:38;97652.28;;;0.05;100.00
6668;BME280;3370;47.712;9.082;2022-12-20T04:45:05;97647.25;;;0.08;100.00
6668;BME280;3370;47.712;9.082;2022-12-20T04:47:31;97654.84;;;0.09;100.00
6668;BME280;3370;47.712;9.082;2022-12-20T04:49:56;97655.72;;;0.16;100.00
6668;BME280;3370;47.712;9.082;2022-12-20T04:52:22;97648.97;;;0.15;100.00
6668;BME280;3370;47.712;9.082;2022-12-20T04:55:07;97648.16;;;0.17;100.00
6668;BME280;3370;47.712;9.082;2022-12-20T04:57:33;97645.66;;;0.22;100.00
6668;BME280;3370;47.712;9.082;2022-12-20T04:59:59;97658.28;;;0.21;100.00
6668;BME280;3370;47.712;9.082;2022-12-20T05:02:24;97647.31;;;0.23;100.00
6668;BME280;3370;47.712;9.082;2022-12-20T05:04:50;97654.13;;;0.27;100.00
6668;BME280;3370;47.712;9.082;2022-12-20T05:07:16;97639.72;;;0.22;100.00
6668;BME280;3370;47.712;9.082;2022-12-20T05:09:42;97638.88;;;0.19;100.00
6668;BME280;3370;47.712;9.082;2022-12-20T05:12:07;97638.03;;;0.17;100.00
6668;BME280;3370;47.712;9.082;2022-12-20T05:14:33;97640.53;;;0.11;100.00
6668;BME280;3370;47.712;9.082;2022-12-20T05:16:59;97633.81;;;0.16;100.00
6668;BME280;3370;47.712;9.082;2022-12-20T05:19:25;97636.38;;;0.23;100.00
6668;BME280;3370;47.712;9.082;2022-12-20T05:21:50;97630.47;;;0.25;100.00
6668;BME280;3370;47.712;9.082;2022-12-20T05:24:35;97636.38;;;0.23;100.00
6668;BME280;3370;47.712;9.082;2022-12-20T05:27:19;97619.50;;;0.22;100.00
6668;BME280;3370;47.712;9.082;2022-12-20T05:29:45;97622.03;;;0.23;100.00
6668;BME280;3370;47.712;9.082;2022-12-20T05:32:11;97615.28;;;0.25;100.00
6668;BME280;3370;47.712;9.082;2022-12-20T05:34:36;97614.47;;;0.31;100.00
6668;BME280;3370;47.712;9.082;2022-12-20T05:37:02;97607.72;;;0.24;100.00
6668;BME280;3370;47.712;9.082;2022-12-20T05:39:28;97610.22;;;0.19;100.00
6668;BME280;3370;47.712;9.082;2022-12-20T05:41:54;97611.06;;;0.19;100.00
6668;BME280;3370;47.712;9.082;2022-12-20T05:44:19;97598.41;;;0.16;100.00
6668;BME280;3370;47.712;9.082;2022-12-20T05:46:47;97606.03;;;0.23;100.00
6668;BME280;3370;47.712;9.082;2022-12-20T05:49:13;97602.66;;;0.22;100.00
6668;BME280;3370;47.712;9.082;2022-12-20T05:51:39;97597.59;;;0.21;100.00
6668;BME280;3370;47.712;9.082;2022-12-20T05:54:05;97595.94;;;0.26;100.00
6668;BME280;3370;47.712;9.082;2022-12-20T05:56:31;97590.00;;;0.22;100.00
6668;BME280;3370;47.712;9.082;2022-12-20T05:58:57;97593.34;;;0.18;100.00
6668;BME280;3370;47.712;9.082;2022-12-20T06:01:24;97594.31;;;0.40;100.00
6668;BME280;3370;47.712;9.082;2022-12-20T06:03:50;97587.47;;;0.21;100.00
6668;BME280;3370;47.712;9.082;2022-12-20T06:06:16;97589.97;;;0.16;100.00
6668;BME280;3370;47.712;9.082;2022-12-20T06:08:43;97590.78;;;0.10;100.00
6668;BME280;3370;47.712;9.082;2022-12-20T06:11:09;97591.63;;;0.08;100.00
6668;BME280;3370;47.712;9.082;2022-12-20T06:13:34;97586.53;;;0.05;100.00
6668;BME280;3370;47.712;9.082;2022-12-20T06:16:00;97591.63;;;0.12;100.00
6668;BME280;3370;47.712;9.082;2022-12-20T06:18:26;97588.28;;;0.15;100.00
6668;BME280;3370;47.712;9.082;2022-12-20T06:20:53;97595.03;;;0.16;100.00
6668;BME280;3370;47.712;9.082;2022-12-20T06:23:19;97600.94;;;0.13;100.00
6668;BME280;3370;47.712;9.082;2022-12-20T06:25:45;97594.16;;;0.11;100.00
6668;BME280;3370;47.712;9.082;2022-12-20T06:28:11;97597.53;;;0.14;100.00
6668;BME280;3370;47.712;9.082;2022-12-20T06:30:37;97592.50;;;0.17;100.00
6668;BME280;3370;47.712;9.082;2022-12-20T06:33:03;97584.06;;;0.15;100.00
6668;BME280;3370;47.712;9.082;2022-12-20T06:35:29;97580.72;;;0.19;100.00
6668;BME280;3370;47.712;9.082;2022-12-20T06:37:55;97581.56;;;0.22;100.00
6668;BME280;3370;47.712;9.082;2022-12-20T06:40:22;97585.78;;;0.23;100.00
6668;BME280;3370;47.712;9.082;2022-12-20T06:42:48;97579.84;;;0.16;100.00
6668;BME280;3370;47.712;9.082;2022-12-20T06:45:15;97582.41;;;0.21;100.00
6668;BME280;3370;47.712;9.082;2022-12-20T06:47:41;97578.19;;;0.21;100.00
6668;BME280;3370;47.712;9.082;2022-12-20T06:50:07;97578.16;;;0.18;100.00
6668;BME280;3370;47.712;9.082;2022-12-20T06:52:33;97577.34;;;0.17;100.00
6668;BME280;3370;47.712;9.082;2022-12-20T06:54:59;97575.66;;;0.21;100.00
6668;BME280;3370;47.712;9.082;2022-12-20T06:57:25;97584.16;;;0.37;100.00
6668;BME280;3370;47.712;9.082;2022-12-20T06:59:51;97579.88;;;0.25;100.00
6668;BME280;3370;47.712;9.082;2022-12-20T07:02:16;97580.72;;;0.21;100.00
6668;BME280;3370;47.712;9.082;2022-12-20T07:04:42;97581.59;;;0.26;100.00
6668;BME280;3370;47.712;9.082;2022-12-20T07:07:08;97583.25;;;0.19;100.00
6668;BME280;3370;47.712;9.082;2022-12-20T07:09:34;97587.47;;;0.21;100.00
6668;BME280;3370;47.712;9.082;2022-12-20T07:12:00;97589.16;;;0.18;100.00
6668;BME280;3370;47.712;9.082;2022-12-20T07:14:26;97583.25;;;0.19;100.00
6668;BME280;3370;47.712;9.082;2022-12-20T07:16:52;97584.09;;;0.25;100.00
6668;BME280;3370;47.712;9.082;2022-12-20T07:19:17;97581.56;;;0.23;100.00
6668;BME280;3370;47.712;9.082;2022-12-20T07:21:43;97587.50;;;0.30;100.00
6668;BME280;3370;47.712;9.082;2022-12-20T07:24:09;97590.03;;;0.30;100.00
6668;BME280;3370;47.712;9.082;2022-12-20T07:26:35;97579.94;;;0.31;100.00
6668;BME280;3370;47.712;9.082;2022-12-20T07:29:01;97582.50;;;0.45;100.00
6668;BME280;3370;47.712;9.082;2022-12-20T07:31:27;97589.22;;;0.37;100.00
6668;BME280;3370;47.712;9.082;2022-12-20T07:33:52;97579.09;;;0.34;100.00
6668;BME280;3370;47.712;9.082;2022-12-20T07:36:18;97582.56;;;0.54;100.00
6668;BME280;3370;47.712;9.082;2022-12-20T07:38:44;97592.63;;;0.42;100.00
6668;BME280;3370;47.712;9.082;2022-12-20T07:41:13;97590.09;;;0.42;100.00
6668;BME280;3370;47.712;9.082;2022-12-20T07:43:39;97588.38;;;0.41;100.00
6668;BME280;3370;47.712;9.082;2022-12-20T07:46:09;97587.56;;;0.45;100.00
6668;BME280;3370;47.712;9.082;2022-12-20T07:48:36;97583.38;;;0.46;100.00
6668;BME280;3370;47.712;9.082;2022-12-20T07:51:07;97587.63;;;0.54;100.00
6668;BME280;3370;47.712;9.082;2022-12-20T07:53:37;97579.16;;;0.51;100.00
6668;BME280;3370;47.712;9.082;2022-12-20T07:56:05;97590.97;;;0.53;100.00
6668;BME280;3370;47.712;9.082;2022-12-20T07:58:33;97587.63;;;0.54;100.00
6668;BME280;3370;47.712;9.082;2022-12-20T08:01:00;97586.78;;;0.60;100.00
6668;BME280;3370;47.712;9.082;2022-12-20T08:03:32;97584.22;;;0.62;100.00
6668;BME280;3370;47.712;9.082;2022-12-20T08:06:02;97588.50;;;0.72;100.00
6668;BME280;3370;47.712;9.082;2022-12-20T08:08:32;97590.16;;;0.65;100.00
6668;BME280;3370;47.712;9.082;2022-12-20T08:10:59;97585.94;;;0.66;100.00
6668;BME280;3370;47.712;9.082;2022-12-20T08:13:26;97587.66;;;0.70;100.00
6668;BME280;3370;47.712;9.082;2022-12-20T08:15:52;97587.66;;;0.74;100.00
6668;BME280;3370;47.712;9.082;2022-12-20T08:18:18;97588.50;;;0.81;100.00
6668;BME280;3370;47.712;9.082;2022-12-20T08:20:44;97590.22;;;0.84;100.00
6668;BME280;3370;47.712;9.082;2022-12-20T08:23:10;97587.69;;;0.85;100.00
6668;BME280;3370;47.712;9.082;2022-12-20T08:25:36;97582.59;;;0.79;100.00
6668;BME280;3370;47.712;9.082;2022-12-20T08:28:01;97583.47;;;0.89;100.00
6668;BME280;3370;47.712;9.082;2022-12-20T08:30:29;97575.88;;;0.95;100.00
6668;BME280;3370;47.712;9.082;2022-12-20T08:32:55;97570.81;;;0.93;100.00
6668;BME280;3370;47.712;9.082;2022-12-20T08:35:21;97573.34;;;0.95;100.00
6668;BME280;3370;47.712;9.082;2022-12-20T08:37:50;97574.19;;;0.95;100.00
6668;BME280;3370;47.712;9.082;2022-12-20T08:40:18;97558.19;;;0.98;100.00
6668;BME280;3370;47.712;9.082;2022-12-20T08:42:44;97559.00;;;1.05;100.00
6668;BME280;3370;47.712;9.082;2022-12-20T08:45:10;97558.19;;;1.06;100.00
6668;BME280;3370;47.712;9.082;2022-12-20T08:47:37;97559.00;;;1.08;100.00
6668;BME280;3370;47.712;9.082;2022-12-20T08:50:03;97560.72;;;1.09;100.00
6668;BME280;3370;47.712;9.082;2022-12-20T08:52:29;97562.41;;;1.14;100.00
6668;BME280;3370;47.712;9.082;2022-12-20T08:54:55;97561.53;;;1.15;100.00
6668;BME280;3370;47.712;9.082;2022-12-20T08:57:21;97555.66;;;1.18;100.00
6668;BME280;3370;47.712;9.082;2022-12-20T08:59:47;97547.19;;;1.19;100.00
6668;BME280;3370;47.712;9.082;2022-12-20T09:02:13;97552.28;;;1.22;100.00
6668;BME280;3370;47.712;9.082;2022-12-20T09:04:39;97551.41;;;1.26;100.00
6668;BME280;3370;47.712;9.082;2022-12-20T09:07:05;97558.19;;;1.29;100.00
6668;BME280;3370;47.712;9.082;2022-12-20T09:09:31;97559.03;;;1.32;100.00
6668;BME280;3370;47.712;9.082;2022-12-20T09:11:57;97560.72;;;1.37;100.00
6668;BME280;3370;47.712;9.082;2022-12-20T09:14:23;97559.03;;;1.42;100.00
6668;BME280;3370;47.712;9.082;2022-12-20T09:16:49;97559.84;;;1.50;100.00
6668;BME280;3370;47.712;9.082;2022-12-20T09:19:15;97544.63;;;1.58;100.00
6668;BME280;3370;47.712;9.082;2022-12-20T09:21:40;97551.38;;;1.71;100.00
6668;BME280;3370;47.712;9.082;2022-12-20T09:24:07;97555.59;;;1.77;100.00
6668;BME280;3370;47.712;9.082;2022-12-20T09:26:33;97560.66;;;1.77;100.00
6668;BME280;3370;47.712;9.082;2022-12-20T09:29:03;97562.34;;;1.87;100.00
6668;BME280;3370;47.712;9.082;2022-12-20T09:31:29;97560.63;;;1.97;100.00
6668;BME280;3370;47.712;9.082;2022-12-20T09:33:57;97564.00;;;2.00;100.00
6668;BME280;3370;47.712;9.082;2022-12-20T09:36:26;97553.81;;;2.13;100.00
6668;BME280;3370;47.712;9.082;2022-12-20T09:38:54;97563.09;;;2.18;100.00
6668;BME280;3370;47.712;9.082;2022-12-20T09:41:36;97561.41;;;2.20;100.00
6668;BME280;3370;47.712;9.082;2022-12-20T09:44:27;97568.13;;;2.26;100.00
6668;BME280;3370;47.712;9.082;2022-12-20T09:47:09;97550.41;;;2.17;100.00
6668;BME280;3370;47.712;9.082;2022-12-20T09:49:43;97550.41;;;2.17;100.00
6668;BME280;3370;47.712;9.082;2022-12-20T09:59:44;97526.69;;;2.24;100.00
6668;BME280;3370;47.712;9.082;2022-12-20T10:02:20;97521.66;;;2.18;100.00
6668;BME280;3370;47.712;9.082;2022-12-20T10:04:46;97525.03;;;2.20;100.00
6668;BME280;3370;47.712;9.082;2022-12-20T10:07:26;97518.25;;;2.22;100.00
6668;BME280;3370;47.712;9.082;2022-12-20T10:10:33;97517.38;;;2.24;100.00
6668;BME280;3370;47.712;9.082;2022-12-20T10:13:36;97514.06;;;2.18;100.00
6668;BME280;3370;47.712;9.082;2022-12-20T10:16:49;97518.25;;;2.25;100.00
6668;BME280;3370;47.712;9.082;2022-12-20T10:22:25;97504.78;;;2.10;100.00
6668;BME280;3370;47.712;9.082;2022-12-20T10:25:33;97504.75;;;2.15;100.00
6668;BME280;3370;47.712;9.082;2022-12-20T10:28:10;97499.63;;;2.26;100.00
6668;BME280;3370;47.712;9.082;2022-12-20T10:30:36;97491.97;;;2.34;100.00
6668;BME280;3370;47.712;9.082;2022-12-20T10:33:02;97493.59;;;2.45;100.00
6668;BME280;3370;47.712;9.082;2022-12-20T10:35:37;97488.47;;;2.58;100.00
6668;BME280;3370;47.712;9.082;2022-12-20T10:38:09;97476.53;;;2.69;100.00
6668;BME280;3370;47.712;9.082;2022-12-20T10:40:58;97484.94;;;2.77;100.00
6668;BME280;3370;47.712;9.082;2022-12-20T10:43:26;97482.28;;;2.93;100.00
6668;BME280;3370;47.712;9.082;2022-12-20T10:46:05;97473.75;;;3.00;100.00
6668;BME280;3370;47.712;9.082;2022-12-20T10:48:37;97459.38;;;2.99;100.00
6668;BME280;3370;47.712;9.082;2022-12-20T10:51:17;97456.63;;;3.23;100.00
6668;BME280;3370;47.712;9.082;2022-12-20T10:54:10;97447.06;;;3.45;100.00
6668;BME280;3370;47.712;9.082;2022-12-20T10:56:58;97446.84;;;3.65;100.00
6668;BME280;3370;47.712;9.082;2022-12-20T10:59:35;97442.44;;;3.81;100.00
6668;BME280;3370;47.712;9.082;2022-12-20T11:02:32;97433.88;;;3.90;99.28
6668;BME280;3370;47.712;9.082;2022-12-20T11:07:51;97425.41;;;3.88;99.03
6668;BME280;3370;47.712;9.082;2022-12-20T11:10:22;97415.25;;;3.88;99.32
6668;BME280;3370;47.712;9.082;2022-12-20T11:13:00;97407.63;;;3.85;99.13
6668;BME280;3370;47.712;9.082;2022-12-20T11:15:32;97391.50;;;3.86;99.40
6668;BME280;3370;47.712;9.082;2022-12-20T11:29:23;97392.59;;;3.67;100.00
6668;BME280;3370;47.712;9.082;2022-12-20T11:37:53;97377.25;;;3.74;99.89
6668;BME280;3370;47.712;9.082;2022-12-20T11:40:31;97378.81;;;3.84;100.00
6668;BME280;3370;47.712;9.082;2022-12-20T11:55:21;97324.06;;;3.57;100.00
6668;BME280;3370;47.712;9.082;2022-12-20T11:57:56;97342.34;;;3.84;100.00
6668;BME280;3370;47.712;9.082;2022-12-20T12:00:26;97339.94;;;3.75;100.00
6668;BME280;3370;47.712;9.082;2022-12-20T12:06:08;97338.44;;;3.60;100.00
6668;BME280;3370;47.712;9.082;2022-12-20T12:09:13;97335.25;;;3.42;100.00
6668;BME280;3370;47.712;9.082;2022-12-20T12:11:48;97338.81;;;3.28;100.00
6668;BME280;3370;47.712;9.082;2022-12-20T12:17:08;97315.13;;;3.25;100.00
6668;BME280;3370;47.712;9.082;2022-12-20T12:19:42;97324.50;;;3.19;100.00
6668;BME280;3370;47.712;9.082;2022-12-20T12:22:18;97328.03;;;3.07;100.00
6668;BME280;3370;47.712;9.082;2022-12-20T12:24:51;97324.69;;;3.02;100.00
6668;BME280;3370;47.712;9.082;2022-12-20T12:27:26;97319.63;;;3.02;100.00
6668;BME280;3370;47.712;9.082;2022-12-20T12:29:53;97307.69;;;3.10;100.00
6668;BME280;3370;47.712;9.082;2022-12-20T12:32:31;97320.41;;;3.07;100.00
6668;BME280;3370;47.712;9.082;2022-12-20T12:35:18;97306.59;;;3.30;100.00
6668;BME280;3370;47.712;9.082;2022-12-20T12:43:52;97297.59;;;3.71;100.00
6668;BME280;3370;47.712;9.082;2022-12-20T12:46:39;97285.41;;;3.94;100.00
6668;BME280;3370;47.712;9.082;2022-12-20T12:49:27;97280.31;;;4.46;99.69
6668;BME280;3370;47.712;9.082;2022-12-20T12:51:58;97275.84;;;7.24;88.19
6668;BME280;3370;47.712;9.082;2022-12-20T12:54:39;97279.94;;;11.15;68.30
6668;BME280;3370;47.712;9.082;2022-12-20T12:57:17;97282.06;;;13.07;58.93
6668;BME280;3370;47.712;9.082;2022-12-20T12:59:48;97285.97;;;13.96;52.63
6668;BME280;3370;47.712;9.082;2022-12-20T13:07:47;97299.50;;;7.62;70.72
6668;BME280;3370;47.712;9.082;2022-12-20T13:17:51;97314.00;;;11.79;56.13
6668;BME280;3370;47.712;9.082;2022-12-20T13:20:36;97308.66;;;12.39;55.63
6668;BME280;3370;47.712;9.082;2022-12-20T13:25:46;97284.94;;;13.51;51.88
6668;BME280;3370;47.712;9.082;2022-12-20T13:33:47;97275.84;;;13.11;52.51
6668;BME280;3370;47.712;9.082;2022-12-20T13:36:35;97262.13;;;13.91;52.24
6668;BME280;3370;47.712;9.082;2022-12-20T13:41:47;97250.69;;;14.86;47.11
6668;BME280;3370;47.712;9.082;2022-12-20T13:47:21;97267.47;;;12.55;53.37
6668;BME280;3370;47.712;9.082;2022-12-20T13:49:51;97260.22;;;12.09;54.36
6668;BME280;3370;47.712;9.082;2022-12-20T13:52:23;97255.59;;;11.41;55.56
6668;BME280;3370;47.712;9.082;2022-12-20T13:54:56;97260.59;;;12.01;55.45
6668;BME280;3370;47.712;9.082;2022-12-20T13:57:38;97249.03;;;13.31;51.94
6668;BME280;3370;47.712;9.082;2022-12-20T14:00:24;97254.53;;;13.07;52.67
6668;BME280;3370;47.712;9.082;2022-12-20T14:02:51;97247.13;;;12.49;54.86
6668;BME280;3370;47.712;9.082;2022-12-20T14:05:24;97248.66;;;12.35;54.86
6668;BME280;3370;47.712;9.082;2022-12-20T14:08:05;97258.72;;;10.89;58.65
6668;BME280;3370;47.712;9.082;2022-12-20T14:10:34;97256.53;;;10.39;59.99
6668;BME280;3370;47.712;9.082;2022-12-20T14:13:00;97269.81;;;9.15;62.66
6668;BME280;3370;47.712;9.082;2022-12-20T14:15:33;97265.75;;;8.59;67.51
6668;BME280;3370;47.712;9.082;2022-12-20T14:18:18;97255.31;;;8.12;69.69
6668;BME280;3370;47.712;9.082;2022-12-20T14:20:49;97249.81;;;7.69;71.28
6668;BME280;3370;47.712;9.082;2022-12-20T14:23:25;97249.84;;;7.38;73.09
6668;BME280;3370;47.712;9.082;2022-12-20T14:25:58;97245.22;;;7.21;73.40
6668;BME280;3370;47.712;9.082;2022-12-20T14:28:36;97247.41;;;7.03;75.43
6668;BME280;3370;47.712;9.082;2022-12-20T14:31:04;97246.50;;;6.42;78.60
6668;BME280;3370;47.712;9.082;2022-12-20T14:33:34;97246.00;;;6.27;79.87
6668;BME280;3370;47.712;9.082;2022-12-20T14:36:19;97246.91;;;6.25;80.52
6668;BME280;3370;47.712;9.082;2022-12-20T14:38:50;97241.03;;;6.21;81.80
6668;BME280;3370;47.712;9.082;2022-12-20T14:41:39;97232.97;;;6.04;81.52
6668;BME280;3370;47.712;9.082;2022-12-20T14:46:32;97229.25;;;5.78;83.22
6668;BME280;3370;47.712;9.082;2022-12-20T14:52:19;97238.44;;;5.49;85.90
6668;BME280;3370;47.712;9.082;2022-12-20T14:55:47;97232.59;;;5.44;86.88
6668;BME280;3370;47.712;9.082;2022-12-20T14:57:55;97231.78;;;5.42;87.53
6668;BME280;3370;47.712;9.082;2022-12-20T15:00:30;97232.63;;;5.41;87.58
6668;BME280;3370;47.712;9.082;2022-12-20T15:08:16;97237.78;;;4.97;89.12
6668;BME280;3370;47.712;9.082;2022-12-20T15:13:20;97242.50;;;4.72;90.65
6668;BME280;3370;47.712;9.082;2022-12-20T15:15:47;97252.81;;;4.66;91.99
6668;BME280;3370;47.712;9.082;2022-12-20T15:18:15;97251.13;;;4.65;91.65
6668;BME280;3370;47.712;9.082;2022-12-20T15:20:43;97249.72;;;4.49;92.16
6668;BME280;3370;47.712;9.082;2022-12-20T15:23:29;97254.31;;;4.30;93.67
6668;BME280;3370;47.712;9.082;2022-12-20T15:25:55;97245.16;;;4.18;94.54